sensor_id;sensor_type;location;lat;lon;timestamp;P1;durP1;ratioP1;P2;durP2;ratioP2
59147;SDS011;44930;52.878;6.168;2023-10-13T00:00:32;70.47;;;31.60;;
59147;SDS011;44930;52.878;6.168;2023-10-13T00:03:02;75.20;;;34.42;;
59147;SDS011;44930;52.878;6.168;2023-10-13T00:05:29;79.55;;;33.65;;
59147;SDS011;44930;52.878;6.168;2023-10-13T00:08:01;70.95;;;31.70;;
59147;SDS011;44930;52.878;6.168;2023-10-13T00:10:30;66.20;;;29.77;;
59147;SDS011;44930;52.878;6.168;2023-10-13T00:12:56;73.38;;;29.77;;
59147;SDS011;44930;52.878;6.168;2023-10-13T00:15:41;87.30;;;34.15;;
59147;SDS011;44930;52.878;6.168;2023-10-13T00:18:22;53.63;;;27.08;;
59147;SDS011;44930;52.878;6.168;2023-10-13T00:20:52;69.18;;;31.67;;
59147;SDS011;44930;52.878;6.168;2023-10-13T00:23:21;53.55;;;25.75;;
59147;SDS011;44930;52.878;6.168;2023-10-13T00:25:48;55.95;;;27.45;;
59147;SDS011;44930;52.878;6.168;2023-10-13T00:28:25;51.22;;;27.67;;
59147;SDS011;44930;52.878;6.168;2023-10-13T00:30:52;68.70;;;29.20;;
59147;SDS011;44930;52.878;6.168;2023-10-13T00:33:24;59.15;;;26.90;;
59147;SDS011;44930;52.878;6.168;2023-10-13T00:35:50;58.50;;;27.58;;
59147;SDS011;44930;52.878;6.168;2023-10-13T00:38:18;57.95;;;27.33;;
59147;SDS011;44930;52.878;6.168;2023-10-13T00:40:45;56.03;;;27.02;;
59147;SDS011;44930;52.878;6.168;2023-10-13T00:43:17;48.58;;;26.60;;
59147;SDS011;44930;52.878;6.168;2023-10-13T00:45:48;49.58;;;24.73;;
59147;SDS011;44930;52.878;6.168;2023-10-13T00:48:32;52.03;;;26.50;;
59147;SDS011;44930;52.878;6.168;2023-10-13T00:51:02;59.40;;;27.08;;
59147;SDS011;44930;52.878;6.168;2023-10-13T00:53:31;52.42;;;24.13;;
59147;SDS011;44930;52.878;6.168;2023-10-13T00:56:09;49.20;;;24.45;;
59147;SDS011;44930;52.878;6.168;2023-10-13T01:01:17;65.15;;;26.58;;
59147;SDS011;44930;52.878;6.168;2023-10-13T01:03:50;56.53;;;28.25;;
59147;SDS011;44930;52.878;6.168;2023-10-13T01:06:33;62.72;;;26.15;;
59147;SDS011;44930;52.878;6.168;2023-10-13T01:09:09;65.35;;;28.25;;
59147;SDS011;44930;52.878;6.168;2023-10-13T01:11:40;44.55;;;25.27;;
59147;SDS011;44930;52.878;6.168;2023-10-13T01:14:10;50.78;;;27.85;;
59147;SDS011;44930;52.878;6.168;2023-10-13T01:16:37;56.40;;;26.45;;
59147;SDS011;44930;52.878;6.168;2023-10-13T01:19:09;63.53;;;27.10;;
59147;SDS011;44930;52.878;6.168;2023-10-13T01:21:37;50.17;;;26.33;;
59147;SDS011;44930;52.878;6.168;2023-10-13T01:24:06;55.88;;;25.42;;
59147;SDS011;44930;52.878;6.168;2023-10-13T01:26:36;47.67;;;25.13;;
59147;SDS011;44930;52.878;6.168;2023-10-13T01:29:05;60.25;;;26.63;;
59147;SDS011;44930;52.878;6.168;2023-10-13T01:31:38;62.40;;;27.15;;
59147;SDS011;44930;52.878;6.168;2023-10-13T01:34:10;52.28;;;25.02;;
59147;SDS011;44930;52.878;6.168;2023-10-13T01:36:44;65.20;;;25.95;;
59147;SDS011;44930;52.878;6.168;2023-10-13T01:39:10;56.35;;;25.38;;
59147;SDS011;44930;52.878;6.168;2023-10-13T01:41:41;56.25;;;25.80;;
59147;SDS011;44930;52.878;6.168;2023-10-13T01:44:08;67.43;;;26.35;;
59147;SDS011;44930;52.878;6.168;2023-10-13T01:46:36;58.15;;;28.13;;
59147;SDS011;44930;52.878;6.168;2023-10-13T01:49:02;56.75;;;27.88;;
59147;SDS011;44930;52.878;6.168;2023-10-13T01:51:28;71.05;;;29.52;;
59147;SDS011;44930;52.878;6.168;2023-10-13T01:53:54;52.05;;;26.10;;
59147;SDS011;44930;52.878;6.168;2023-10-13T01:56:23;54.35;;;27.90;;
59147;SDS011;44930;52.878;6.168;2023-10-13T01:58:49;63.80;;;28.60;;
59147;SDS011;44930;52.878;6.168;2023-10-13T02:01:15;68.97;;;30.73;;
59147;SDS011;44930;52.878;6.168;2023-10-13T02:03:59;63.10;;;30.20;;
59147;SDS011;44930;52.878;6.168;2023-10-13T02:06:28;59.15;;;30.15;;
59147;SDS011;44930;52.878;6.168;2023-10-13T02:08:59;62.67;;;30.40;;
59147;SDS011;44930;52.878;6.168;2023-10-13T02:11:40;52.42;;;29.05;;
59147;SDS011;44930;52.878;6.168;2023-10-13T02:14:08;59.33;;;30.77;;
59147;SDS011;44930;52.878;6.168;2023-10-13T02:16:36;60.83;;;30.95;;
59147;SDS011;44930;52.878;6.168;2023-10-13T02:19:02;64.38;;;31.88;;
59147;SDS011;44930;52.878;6.168;2023-10-13T02:21:31;53.20;;;29.67;;
59147;SDS011;44930;52.878;6.168;2023-10-13T02:23:59;62.72;;;30.42;;
59147;SDS011;44930;52.878;6.168;2023-10-13T02:26:26;49.25;;;27.92;;
59147;SDS011;44930;52.878;6.168;2023-10-13T02:29:03;55.38;;;30.40;;
59147;SDS011;44930;52.878;6.168;2023-10-13T02:31:34;47.45;;;28.80;;
59147;SDS011;44930;52.878;6.168;2023-10-13T02:34:01;51.25;;;28.25;;
59147;SDS011;44930;52.878;6.168;2023-10-13T02:36:32;61.30;;;30.02;;
59147;SDS011;44930;52.878;6.168;2023-10-13T02:39:09;40.20;;;25.27;;
59147;SDS011;44930;52.878;6.168;2023-10-13T02:41:34;42.28;;;24.55;;
59147;SDS011;44930;52.878;6.168;2023-10-13T02:44:04;61.53;;;27.88;;
59147;SDS011;44930;52.878;6.168;2023-10-13T02:46:44;40.92;;;22.95;;
59147;SDS011;44930;52.878;6.168;2023-10-13T02:49:15;43.63;;;23.00;;
59147;SDS011;44930;52.878;6.168;2023-10-13T02:51:44;51.75;;;27.92;;
59147;SDS011;44930;52.878;6.168;2023-10-13T02:54:10;43.88;;;27.17;;
59147;SDS011;44930;52.878;6.168;2023-10-13T02:56:43;51.88;;;28.45;;
59147;SDS011;44930;52.878;6.168;2023-10-13T02:59:15;48.72;;;28.98;;
59147;SDS011;44930;52.878;6.168;2023-10-13T03:01:44;48.92;;;28.02;;
59147;SDS011;44930;52.878;6.168;2023-10-13T03:04:10;49.35;;;27.63;;
59147;SDS011;44930;52.878;6.168;2023-10-13T03:06:38;61.10;;;29.02;;
59147;SDS011;44930;52.878;6.168;2023-10-13T03:09:06;54.05;;;28.15;;
59147;SDS011;44930;52.878;6.168;2023-10-13T03:11:43;56.40;;;28.98;;
59147;SDS011;44930;52.878;6.168;2023-10-13T03:14:18;54.83;;;27.33;;
59147;SDS011;44930;52.878;6.168;2023-10-13T03:16:58;53.15;;;27.33;;
59147;SDS011;44930;52.878;6.168;2023-10-13T03:19:31;50.05;;;25.77;;
59147;SDS011;44930;52.878;6.168;2023-10-13T03:22:05;61.60;;;30.02;;
59147;SDS011;44930;52.878;6.168;2023-10-13T03:24:38;53.65;;;26.35;;
59147;SDS011;44930;52.878;6.168;2023-10-13T03:27:10;45.40;;;23.92;;
59147;SDS011;44930;52.878;6.168;2023-10-13T03:29:41;41.20;;;23.02;;
59147;SDS011;44930;52.878;6.168;2023-10-13T03:32:15;36.17;;;21.20;;
59147;SDS011;44930;52.878;6.168;2023-10-13T03:34:44;55.42;;;23.90;;
59147;SDS011;44930;52.878;6.168;2023-10-13T03:37:36;41.33;;;21.23;;
59147;SDS011;44930;52.878;6.168;2023-10-13T03:40:11;42.55;;;20.38;;
59147;SDS011;44930;52.878;6.168;2023-10-13T03:43:01;45.70;;;21.88;;
59147;SDS011;44930;52.878;6.168;2023-10-13T03:45:33;47.10;;;21.65;;
59147;SDS011;44930;52.878;6.168;2023-10-13T03:48:03;59.10;;;23.58;;
59147;SDS011;44930;52.878;6.168;2023-10-13T03:50:36;45.63;;;22.40;;
59147;SDS011;44930;52.878;6.168;2023-10-13T03:53:11;45.58;;;22.63;;
59147;SDS011;44930;52.878;6.168;2023-10-13T03:55:38;46.20;;;21.85;;
59147;SDS011;44930;52.878;6.168;2023-10-13T03:58:04;44.90;;;22.90;;
59147;SDS011;44930;52.878;6.168;2023-10-13T04:00:30;46.25;;;23.35;;
59147;SDS011;44930;52.878;6.168;2023-10-13T04:02:56;43.03;;;23.30;;
59147;SDS011;44930;52.878;6.168;2023-10-13T04:05:29;52.97;;;23.52;;
59147;SDS011;44930;52.878;6.168;2023-10-13T04:08:05;65.68;;;26.27;;
59147;SDS011;44930;52.878;6.168;2023-10-13T04:10:53;60.08;;;25.63;;
59147;SDS011;44930;52.878;6.168;2023-10-13T04:13:20;79.50;;;28.48;;
59147;SDS011;44930;52.878;6.168;2023-10-13T04:16:18;59.22;;;27.65;;
59147;SDS011;44930;52.878;6.168;2023-10-13T04:18:47;45.50;;;24.67;;
59147;SDS011;44930;52.878;6.168;2023-10-13T04:21:35;44.47;;;23.27;;
59147;SDS011;44930;52.878;6.168;2023-10-13T04:26:34;78.32;;;28.40;;
59147;SDS011;44930;52.878;6.168;2023-10-13T04:29:22;64.15;;;26.63;;
59147;SDS011;44930;52.878;6.168;2023-10-13T04:32:06;51.63;;;26.17;;
59147;SDS011;44930;52.878;6.168;2023-10-13T04:34:38;51.97;;;24.60;;
59147;SDS011;44930;52.878;6.168;2023-10-13T04:37:04;58.00;;;23.58;;
59147;SDS011;44930;52.878;6.168;2023-10-13T04:39:53;90.93;;;29.42;;
59147;SDS011;44930;52.878;6.168;2023-10-13T04:42:24;80.90;;;28.27;;
59147;SDS011;44930;52.878;6.168;2023-10-13T04:45:13;46.17;;;23.98;;
59147;SDS011;44930;52.878;6.168;2023-10-13T04:47:57;68.63;;;25.15;;
59147;SDS011;44930;52.878;6.168;2023-10-13T04:50:58;48.05;;;24.38;;
59147;SDS011;44930;52.878;6.168;2023-10-13T04:53:44;72.53;;;25.67;;
59147;SDS011;44930;52.878;6.168;2023-10-13T04:56:25;45.83;;;22.45;;
59147;SDS011;44930;52.878;6.168;2023-10-13T04:59:23;68.55;;;25.92;;
59147;SDS011;44930;52.878;6.168;2023-10-13T05:02:02;77.85;;;26.45;;
59147;SDS011;44930;52.878;6.168;2023-10-13T05:04:46;53.25;;;23.38;;
59147;SDS011;44930;52.878;6.168;2023-10-13T05:07:30;40.10;;;21.13;;
59147;SDS011;44930;52.878;6.168;2023-10-13T05:10:15;80.57;;;26.15;;
59147;SDS011;44930;52.878;6.168;2023-10-13T05:13:00;61.35;;;23.05;;
59147;SDS011;44930;52.878;6.168;2023-10-13T05:15:48;41.60;;;20.92;;
59147;SDS011;44930;52.878;6.168;2023-10-13T05:18:33;59.67;;;22.92;;
59147;SDS011;44930;52.878;6.168;2023-10-13T05:21:18;56.25;;;22.50;;
59147;SDS011;44930;52.878;6.168;2023-10-13T05:24:02;56.80;;;22.63;;
59147;SDS011;44930;52.878;6.168;2023-10-13T05:26:47;37.67;;;19.05;;
59147;SDS011;44930;52.878;6.168;2023-10-13T05:29:31;26.63;;;17.20;;
59147;SDS011;44930;52.878;6.168;2023-10-13T05:32:16;27.25;;;15.57;;
59147;SDS011;44930;52.878;6.168;2023-10-13T05:35:00;21.13;;;13.98;;
59147;SDS011;44930;52.878;6.168;2023-10-13T05:37:44;30.23;;;14.88;;
59147;SDS011;44930;52.878;6.168;2023-10-13T05:40:29;26.17;;;14.38;;
59147;SDS011;44930;52.878;6.168;2023-10-13T05:43:13;22.67;;;14.65;;
59147;SDS011;44930;52.878;6.168;2023-10-13T05:46:01;37.47;;;17.67;;
59147;SDS011;44930;52.878;6.168;2023-10-13T05:48:47;29.10;;;17.05;;
59147;SDS011;44930;52.878;6.168;2023-10-13T05:51:22;26.40;;;16.45;;
59147;SDS011;44930;52.878;6.168;2023-10-13T05:53:57;21.17;;;13.75;;
59147;SDS011;44930;52.878;6.168;2023-10-13T05:56:42;17.38;;;12.43;;
59147;SDS011;44930;52.878;6.168;2023-10-13T05:59:28;19.83;;;12.50;;
59147;SDS011;44930;52.878;6.168;2023-10-13T06:02:16;24.13;;;13.35;;
59147;SDS011;44930;52.878;6.168;2023-10-13T06:05:06;17.42;;;11.02;;
59147;SDS011;44930;52.878;6.168;2023-10-13T06:07:52;15.40;;;11.07;;
59147;SDS011;44930;52.878;6.168;2023-10-13T06:10:36;15.82;;;10.38;;
59147;SDS011;44930;52.878;6.168;2023-10-13T06:13:22;16.20;;;11.15;;
59147;SDS011;44930;52.878;6.168;2023-10-13T06:16:13;16.23;;;10.00;;
59147;SDS011;44930;52.878;6.168;2023-10-13T06:19:00;14.00;;;9.98;;
59147;SDS011;44930;52.878;6.168;2023-10-13T06:21:45;11.02;;;8.30;;
59147;SDS011;44930;52.878;6.168;2023-10-13T06:24:30;11.00;;;8.35;;
59147;SDS011;44930;52.878;6.168;2023-10-13T06:27:14;13.30;;;7.85;;
59147;SDS011;44930;52.878;6.168;2023-10-13T06:29:59;10.93;;;8.35;;
59147;SDS011;44930;52.878;6.168;2023-10-13T06:32:29;10.73;;;7.43;;
59147;SDS011;44930;52.878;6.168;2023-10-13T06:34:56;13.63;;;7.32;;
59147;SDS011;44930;52.878;6.168;2023-10-13T06:37:32;11.57;;;7.95;;
59147;SDS011;44930;52.878;6.168;2023-10-13T06:40:02;11.70;;;6.95;;
59147;SDS011;44930;52.878;6.168;2023-10-13T06:42:47;8.77;;;6.28;;
59147;SDS011;44930;52.878;6.168;2023-10-13T06:45:13;8.07;;;6.20;;
59147;SDS011;44930;52.878;6.168;2023-10-13T06:47:42;11.95;;;6.90;;
59147;SDS011;44930;52.878;6.168;2023-10-13T06:50:17;10.05;;;6.45;;
59147;SDS011;44930;52.878;6.168;2023-10-13T06:52:49;13.40;;;6.15;;
59147;SDS011;44930;52.878;6.168;2023-10-13T06:55:15;10.43;;;5.18;;
59147;SDS011;44930;52.878;6.168;2023-10-13T06:57:52;9.82;;;5.28;;
59147;SDS011;44930;52.878;6.168;2023-10-13T07:00:19;8.95;;;4.70;;
59147;SDS011;44930;52.878;6.168;2023-10-13T07:02:51;11.95;;;5.43;;
59147;SDS011;44930;52.878;6.168;2023-10-13T07:05:17;11.18;;;5.25;;
59147;SDS011;44930;52.878;6.168;2023-10-13T07:07:44;9.32;;;4.78;;
59147;SDS011;44930;52.878;6.168;2023-10-13T07:10:10;12.88;;;4.90;;
59147;SDS011;44930;52.878;6.168;2023-10-13T07:12:37;14.13;;;6.18;;
59147;SDS011;44930;52.878;6.168;2023-10-13T07:15:08;15.10;;;5.47;;
59147;SDS011;44930;52.878;6.168;2023-10-13T07:17:45;15.63;;;5.05;;
59147;SDS011;44930;52.878;6.168;2023-10-13T07:20:12;14.07;;;6.43;;
59147;SDS011;44930;52.878;6.168;2023-10-13T07:22:42;18.88;;;5.50;;
59147;SDS011;44930;52.878;6.168;2023-10-13T07:25:20;14.82;;;6.10;;
59147;SDS011;44930;52.878;6.168;2023-10-13T07:27:50;17.58;;;6.45;;
59147;SDS011;44930;52.878;6.168;2023-10-13T07:30:16;18.55;;;6.40;;
59147;SDS011;44930;52.878;6.168;2023-10-13T07:32:45;25.63;;;6.30;;
59147;SDS011;44930;52.878;6.168;2023-10-13T07:35:18;18.98;;;6.88;;
59147;SDS011;44930;52.878;6.168;2023-10-13T07:37:45;19.15;;;6.80;;
59147;SDS011;44930;52.878;6.168;2023-10-13T07:40:14;15.63;;;6.43;;
59147;SDS011;44930;52.878;6.168;2023-10-13T07:42:55;20.08;;;6.00;;
59147;SDS011;44930;52.878;6.168;2023-10-13T07:45:37;20.85;;;6.38;;
59147;SDS011;44930;52.878;6.168;2023-10-13T07:48:06;16.73;;;6.43;;
59147;SDS011;44930;52.878;6.168;2023-10-13T07:50:58;13.75;;;6.65;;
59147;SDS011;44930;52.878;6.168;2023-10-13T07:53:26;20.02;;;7.30;;
59147;SDS011;44930;52.878;6.168;2023-10-13T07:55:59;18.10;;;7.22;;
59147;SDS011;44930;52.878;6.168;2023-10-13T07:58:30;22.33;;;8.77;;
59147;SDS011;44930;52.878;6.168;2023-10-13T08:00:59;15.27;;;7.43;;
59147;SDS011;44930;52.878;6.168;2023-10-13T08:03:34;18.67;;;7.60;;
59147;SDS011;44930;52.878;6.168;2023-10-13T08:06:09;16.38;;;7.78;;
59147;SDS011;44930;52.878;6.168;2023-10-13T08:08:35;19.63;;;7.60;;
59147;SDS011;44930;52.878;6.168;2023-10-13T08:11:08;19.65;;;7.72;;
59147;SDS011;44930;52.878;6.168;2023-10-13T08:13:59;18.98;;;7.25;;
59147;SDS011;44930;52.878;6.168;2023-10-13T08:16:35;24.40;;;8.23;;
59147;SDS011;44930;52.878;6.168;2023-10-13T08:19:19;18.08;;;7.85;;
59147;SDS011;44930;52.878;6.168;2023-10-13T08:21:52;15.35;;;7.50;;
59147;SDS011;44930;52.878;6.168;2023-10-13T08:24:22;19.98;;;8.05;;
59147;SDS011;44930;52.878;6.168;2023-10-13T08:27:14;20.45;;;9.05;;
59147;SDS011;44930;52.878;6.168;2023-10-13T08:34:52;25.60;;;9.50;;
59147;SDS011;44930;52.878;6.168;2023-10-13T08:39:58;19.35;;;9.48;;
59147;SDS011;44930;52.878;6.168;2023-10-13T08:42:31;21.77;;;9.32;;
59147;SDS011;44930;52.878;6.168;2023-10-13T08:45:07;18.00;;;8.63;;
59147;SDS011;44930;52.878;6.168;2023-10-13T08:48:06;20.80;;;9.32;;
59147;SDS011;44930;52.878;6.168;2023-10-13T08:50:50;22.25;;;9.48;;
59147;SDS011;44930;52.878;6.168;2023-10-13T08:53:26;20.27;;;10.88;;
59147;SDS011;44930;52.878;6.168;2023-10-13T08:56:01;20.52;;;10.35;;
59147;SDS011;44930;52.878;6.168;2023-10-13T08:58:46;18.80;;;12.43;;
59147;SDS011;44930;52.878;6.168;2023-10-13T09:01:38;32.15;;;15.18;;
59147;SDS011;44930;52.878;6.168;2023-10-13T09:04:25;33.72;;;15.18;;
59147;SDS011;44930;52.878;6.168;2023-10-13T09:06:58;24.38;;;13.07;;
59147;SDS011;44930;52.878;6.168;2023-10-13T09:09:51;20.75;;;11.13;;
59147;SDS011;44930;52.878;6.168;2023-10-13T09:14:59;16.65;;;8.82;;
59147;SDS011;44930;52.878;6.168;2023-10-13T09:17:41;20.40;;;10.15;;
59147;SDS011;44930;52.878;6.168;2023-10-13T09:20:29;19.48;;;8.85;;
59147;SDS011;44930;52.878;6.168;2023-10-13T09:23:14;15.65;;;8.75;;
59147;SDS011;44930;52.878;6.168;2023-10-13T09:25:49;14.05;;;7.53;;
59147;SDS011;44930;52.878;6.168;2023-10-13T09:28:34;15.43;;;7.50;;
59147;SDS011;44930;52.878;6.168;2023-10-13T09:31:02;10.45;;;7.13;;
59147;SDS011;44930;52.878;6.168;2023-10-13T09:33:32;20.90;;;8.05;;
59147;SDS011;44930;52.878;6.168;2023-10-13T09:36:01;20.15;;;7.70;;
59147;SDS011;44930;52.878;6.168;2023-10-13T09:38:29;14.27;;;7.55;;
59147;SDS011;44930;52.878;6.168;2023-10-13T09:40:57;14.30;;;7.53;;
59147;SDS011;44930;52.878;6.168;2023-10-13T09:43:26;18.05;;;8.13;;
59147;SDS011;44930;52.878;6.168;2023-10-13T09:45:59;15.38;;;6.80;;
59147;SDS011;44930;52.878;6.168;2023-10-13T09:51:05;17.60;;;7.57;;
59147;SDS011;44930;52.878;6.168;2023-10-13T09:53:38;15.90;;;7.15;;
59147;SDS011;44930;52.878;6.168;2023-10-13T09:56:12;18.40;;;7.53;;
59147;SDS011;44930;52.878;6.168;2023-10-13T09:59:04;17.08;;;7.18;;
59147;SDS011;44930;52.878;6.168;2023-10-13T10:01:40;17.58;;;6.70;;
59147;SDS011;44930;52.878;6.168;2023-10-13T10:04:22;16.70;;;8.07;;
59147;SDS011;44930;52.878;6.168;2023-10-13T10:06:58;17.55;;;7.63;;
59147;SDS011;44930;52.878;6.168;2023-10-13T10:09:30;15.57;;;7.00;;
59147;SDS011;44930;52.878;6.168;2023-10-13T10:14:34;16.60;;;6.97;;
59147;SDS011;44930;52.878;6.168;2023-10-13T10:17:21;20.63;;;7.75;;
59147;SDS011;44930;52.878;6.168;2023-10-13T10:19:51;18.45;;;6.43;;
59147;SDS011;44930;52.878;6.168;2023-10-13T10:22:25;15.55;;;7.90;;
59147;SDS011;44930;52.878;6.168;2023-10-13T10:24:58;13.82;;;7.30;;
59147;SDS011;44930;52.878;6.168;2023-10-13T10:27:31;14.73;;;5.85;;
59147;SDS011;44930;52.878;6.168;2023-10-13T10:29:57;18.23;;;6.40;;
59147;SDS011;44930;52.878;6.168;2023-10-13T10:32:36;15.55;;;6.40;;
59147;SDS011;44930;52.878;6.168;2023-10-13T10:35:08;16.65;;;7.18;;
59147;SDS011;44930;52.878;6.168;2023-10-13T10:37:45;17.30;;;6.18;;
59147;SDS011;44930;52.878;6.168;2023-10-13T10:40:17;11.68;;;5.85;;
59147;SDS011;44930;52.878;6.168;2023-10-13T10:43:01;15.30;;;6.40;;
59147;SDS011;44930;52.878;6.168;2023-10-13T10:45:28;17.30;;;5.85;;
59147;SDS011;44930;52.878;6.168;2023-10-13T10:48:11;15.60;;;5.07;;
59147;SDS011;44930;52.878;6.168;2023-10-13T10:50:52;18.83;;;6.13;;
59147;SDS011;44930;52.878;6.168;2023-10-13T10:53:22;16.98;;;5.18;;
59147;SDS011;44930;52.878;6.168;2023-10-13T10:56:03;13.35;;;5.05;;
59147;SDS011;44930;52.878;6.168;2023-10-13T10:58:34;21.60;;;6.32;;
59147;SDS011;44930;52.878;6.168;2023-10-13T11:01:08;19.27;;;6.07;;
59147;SDS011;44930;52.878;6.168;2023-10-13T11:06:22;18.10;;;5.85;;
59147;SDS011;44930;52.878;6.168;2023-10-13T11:08:49;16.83;;;6.43;;
59147;SDS011;44930;52.878;6.168;2023-10-13T11:11:28;9.27;;;5.15;;
59147;SDS011;44930;52.878;6.168;2023-10-13T11:14:00;12.98;;;6.10;;
59147;SDS011;44930;52.878;6.168;2023-10-13T11:16:48;14.23;;;5.57;;
59147;SDS011;44930;52.878;6.168;2023-10-13T11:19:41;12.55;;;5.60;;
59147;SDS011;44930;52.878;6.168;2023-10-13T11:22:11;19.58;;;6.25;;
59147;SDS011;44930;52.878;6.168;2023-10-13T11:24:54;20.38;;;6.75;;
59147;SDS011;44930;52.878;6.168;2023-10-13T11:27:28;16.35;;;5.80;;
59147;SDS011;44930;52.878;6.168;2023-10-13T11:30:09;16.30;;;5.90;;
59147;SDS011;44930;52.878;6.168;2023-10-13T11:32:39;13.30;;;5.63;;
59147;SDS011;44930;52.878;6.168;2023-10-13T11:35:08;16.33;;;5.93;;
59147;SDS011;44930;52.878;6.168;2023-10-13T11:37:46;14.57;;;5.85;;
59147;SDS011;44930;52.878;6.168;2023-10-13T11:43:06;14.50;;;5.90;;
59147;SDS011;44930;52.878;6.168;2023-10-13T11:45:38;15.05;;;5.35;;
59147;SDS011;44930;52.878;6.168;2023-10-13T11:48:19;18.48;;;6.72;;
59147;SDS011;44930;52.878;6.168;2023-10-13T11:50:59;19.60;;;7.60;;
59147;SDS011;44930;52.878;6.168;2023-10-13T11:53:25;16.85;;;6.07;;
59147;SDS011;44930;52.878;6.168;2023-10-13T11:55:53;16.67;;;6.25;;
59147;SDS011;44930;52.878;6.168;2023-10-13T11:58:20;17.17;;;6.75;;
59147;SDS011;44930;52.878;6.168;2023-10-13T12:00:45;19.10;;;6.43;;
59147;SDS011;44930;52.878;6.168;2023-10-13T12:03:26;15.98;;;6.43;;
59147;SDS011;44930;52.878;6.168;2023-10-13T12:06:10;14.50;;;6.60;;
59147;SDS011;44930;52.878;6.168;2023-10-13T12:09:00;18.20;;;6.57;;
59147;SDS011;44930;52.878;6.168;2023-10-13T12:11:48;16.60;;;6.55;;
59147;SDS011;44930;52.878;6.168;2023-10-13T12:14:19;18.33;;;6.55;;
59147;SDS011;44930;52.878;6.168;2023-10-13T12:16:49;17.00;;;6.95;;
59147;SDS011;44930;52.878;6.168;2023-10-13T12:19:19;16.48;;;6.60;;
59147;SDS011;44930;52.878;6.168;2023-10-13T12:21:48;15.15;;;7.65;;
59147;SDS011;44930;52.878;6.168;2023-10-13T12:24:21;18.00;;;6.75;;
59147;SDS011;44930;52.878;6.168;2023-10-13T12:27:03;24.35;;;7.20;;
59147;SDS011;44930;52.878;6.168;2023-10-13T12:29:48;15.45;;;6.75;;
59147;SDS011;44930;52.878;6.168;2023-10-13T12:32:16;17.40;;;7.03;;
59147;SDS011;44930;52.878;6.168;2023-10-13T12:34:47;16.65;;;6.55;;
59147;SDS011;44930;52.878;6.168;2023-10-13T12:37:23;15.27;;;7.20;;
59147;SDS011;44930;52.878;6.168;2023-10-13T12:40:13;16.13;;;6.28;;
59147;SDS011;44930;52.878;6.168;2023-10-13T12:42:59;14.80;;;6.23;;
59147;SDS011;44930;52.878;6.168;2023-10-13T12:45:44;23.43;;;6.77;;
59147;SDS011;44930;52.878;6.168;2023-10-13T12:48:30;18.85;;;6.95;;
59147;SDS011;44930;52.878;6.168;2023-10-13T12:51:15;20.27;;;7.43;;
59147;SDS011;44930;52.878;6.168;2023-10-13T12:53:53;16.98;;;6.47;;
59147;SDS011;44930;52.878;6.168;2023-10-13T12:56:20;20.85;;;6.93;;
59147;SDS011;44930;52.878;6.168;2023-10-13T12:58:53;20.40;;;7.15;;
59147;SDS011;44930;52.878;6.168;2023-10-13T13:01:23;19.58;;;7.13;;
59147;SDS011;44930;52.878;6.168;2023-10-13T13:03:51;22.35;;;8.13;;
59147;SDS011;44930;52.878;6.168;2023-10-13T13:06:22;19.23;;;7.15;;
59147;SDS011;44930;52.878;6.168;2023-10-13T13:08:54;13.63;;;7.18;;
59147;SDS011;44930;52.878;6.168;2023-10-13T13:11:24;15.80;;;7.22;;
59147;SDS011;44930;52.878;6.168;2023-10-13T13:13:50;18.77;;;6.93;;
59147;SDS011;44930;52.878;6.168;2023-10-13T13:16:16;20.40;;;7.95;;
59147;SDS011;44930;52.878;6.168;2023-10-13T13:18:47;20.70;;;8.20;;
59147;SDS011;44930;52.878;6.168;2023-10-13T13:21:12;20.25;;;6.70;;
59147;SDS011;44930;52.878;6.168;2023-10-13T13:23:45;21.52;;;7.43;;
59147;SDS011;44930;52.878;6.168;2023-10-13T13:26:23;13.82;;;6.85;;
59147;SDS011;44930;52.878;6.168;2023-10-13T13:28:49;15.27;;;7.43;;
59147;SDS011;44930;52.878;6.168;2023-10-13T13:31:20;15.63;;;7.43;;
59147;SDS011;44930;52.878;6.168;2023-10-13T13:33:55;21.17;;;7.72;;
59147;SDS011;44930;52.878;6.168;2023-10-13T13:36:21;15.90;;;7.43;;
59147;SDS011;44930;52.878;6.168;2023-10-13T13:38:47;21.33;;;7.45;;
59147;SDS011;44930;52.878;6.168;2023-10-13T13:41:19;26.98;;;7.00;;
59147;SDS011;44930;52.878;6.168;2023-10-13T13:43:46;19.73;;;8.60;;
59147;SDS011;44930;52.878;6.168;2023-10-13T13:46:20;16.30;;;6.93;;
59147;SDS011;44930;52.878;6.168;2023-10-13T13:48:50;19.90;;;7.43;;
59147;SDS011;44930;52.878;6.168;2023-10-13T13:51:22;19.17;;;9.30;;
59147;SDS011;44930;52.878;6.168;2023-10-13T13:53:52;19.20;;;7.63;;
59147;SDS011;44930;52.878;6.168;2023-10-13T13:56:19;16.38;;;6.97;;
59147;SDS011;44930;52.878;6.168;2023-10-13T13:58:48;17.90;;;7.47;;
59147;SDS011;44930;52.878;6.168;2023-10-13T14:01:32;18.92;;;8.35;;
59147;SDS011;44930;52.878;6.168;2023-10-13T14:04:00;15.80;;;6.82;;
59147;SDS011;44930;52.878;6.168;2023-10-13T14:06:28;15.82;;;7.25;;
59147;SDS011;44930;52.878;6.168;2023-10-13T14:11:21;17.02;;;6.80;;
59147;SDS011;44930;52.878;6.168;2023-10-13T14:14:12;18.42;;;6.78;;
59147;SDS011;44930;52.878;6.168;2023-10-13T14:16:45;21.73;;;7.45;;
59147;SDS011;44930;52.878;6.168;2023-10-13T14:19:12;15.30;;;6.25;;
59147;SDS011;44930;52.878;6.168;2023-10-13T14:24:21;17.55;;;7.88;;
59147;SDS011;44930;52.878;6.168;2023-10-13T14:26:56;16.42;;;6.95;;
59147;SDS011;44930;52.878;6.168;2023-10-13T14:29:32;20.75;;;6.78;;
59147;SDS011;44930;52.878;6.168;2023-10-13T14:31:58;20.75;;;7.75;;
59147;SDS011;44930;52.878;6.168;2023-10-13T14:34:24;18.38;;;7.35;;
59147;SDS011;44930;52.878;6.168;2023-10-13T14:36:51;16.80;;;7.93;;
59147;SDS011;44930;52.878;6.168;2023-10-13T14:39:19;19.15;;;7.10;;
59147;SDS011;44930;52.878;6.168;2023-10-13T14:41:46;17.27;;;7.82;;
59147;SDS011;44930;52.878;6.168;2023-10-13T14:44:13;18.92;;;7.32;;
59147;SDS011;44930;52.878;6.168;2023-10-13T14:46:39;15.80;;;7.75;;
59147;SDS011;44930;52.878;6.168;2023-10-13T14:49:05;14.43;;;6.75;;
59147;SDS011;44930;52.878;6.168;2023-10-13T14:51:31;16.45;;;7.55;;
59147;SDS011;44930;52.878;6.168;2023-10-13T14:53:57;21.85;;;7.38;;
59147;SDS011;44930;52.878;6.168;2023-10-13T14:56:25;14.40;;;7.22;;
59147;SDS011;44930;52.878;6.168;2023-10-13T14:58:52;19.75;;;8.73;;
59147;SDS011;44930;52.878;6.168;2023-10-13T15:01:19;15.90;;;7.63;;
59147;SDS011;44930;52.878;6.168;2023-10-13T15:03:47;21.25;;;9.95;;
59147;SDS011;44930;52.878;6.168;2023-10-13T15:06:16;18.25;;;8.88;;
59147;SDS011;44930;52.878;6.168;2023-10-13T15:08:43;15.63;;;8.82;;
59147;SDS011;44930;52.878;6.168;2023-10-13T15:11:12;20.92;;;9.45;;
59147;SDS011;44930;52.878;6.168;2023-10-13T15:13:41;24.77;;;9.50;;
59147;SDS011;44930;52.878;6.168;2023-10-13T15:16:17;20.15;;;9.40;;
59147;SDS011;44930;52.878;6.168;2023-10-13T15:18:47;22.98;;;10.80;;
59147;SDS011;44930;52.878;6.168;2023-10-13T15:21:20;24.02;;;10.50;;
59147;SDS011;44930;52.878;6.168;2023-10-13T15:23:48;21.38;;;9.98;;
59147;SDS011;44930;52.878;6.168;2023-10-13T15:26:16;22.42;;;10.57;;
59147;SDS011;44930;52.878;6.168;2023-10-13T15:28:46;21.60;;;10.45;;
59147;SDS011;44930;52.878;6.168;2023-10-13T15:31:21;20.48;;;9.80;;
59147;SDS011;44930;52.878;6.168;2023-10-13T15:33:59;29.60;;;10.43;;
59147;SDS011;44930;52.878;6.168;2023-10-13T15:36:32;21.17;;;10.00;;
59147;SDS011;44930;52.878;6.168;2023-10-13T15:38:59;20.38;;;10.32;;
59147;SDS011;44930;52.878;6.168;2023-10-13T15:41:26;18.05;;;7.90;;